createdAt,value
2018-11-23T00:01:24.473Z,85.33
2018-11-23T00:03:52.853Z,85.31
2018-11-23T00:06:21.119Z,85.30
2018-11-23T00:08:49.409Z,85.01
2018-11-23T00:11:17.708Z,85.02
2018-11-23T00:13:46.221Z,85.05
2018-11-23T00:16:14.517Z,84.93
2018-11-23T00:18:42.796Z,84.59
2018-11-23T00:21:11.071Z,84.58
2018-11-23T00:23:39.387Z,84.92
2018-11-23T00:26:07.669Z,85.41
2018-11-23T00:28:35.936Z,85.26
2018-11-23T00:31:04.225Z,85.11
2018-11-23T00:33:32.484Z,84.93
2018-11-23T00:36:00.781Z,84.89
2018-11-23T00:38:29.033Z,84.70
2018-11-23T00:40:57.335Z,85.02
2018-11-23T00:43:25.629Z,84.95
2018-11-23T00:45:53.907Z,85.57
2018-11-23T00:48:22.204Z,85.23
2018-11-23T00:50:50.513Z,85.40
2018-11-23T00:53:18.795Z,85.38
2018-11-23T00:55:47.067Z,85.14
2018-11-23T00:58:15.377Z,84.94
2018-11-23T01:00:43.672Z,85.04
2018-11-23T01:03:11.946Z,85.21
2018-11-23T01:05:40.214Z,85.51
2018-11-23T01:08:08.484Z,85.07
2018-11-23T01:10:36.804Z,85.31
2018-11-23T01:13:05.635Z,85.82
2018-11-23T01:15:33.917Z,85.51
2018-11-23T01:18:02.212Z,85.77
2018-11-23T01:20:30.507Z,86.12
2018-11-23T01:22:59.175Z,86.26
2018-11-23T01:25:28.169Z,86.15
2018-11-23T01:27:56.868Z,85.95
2018-11-23T01:30:27.381Z,86.29
2018-11-23T01:32:55.670Z,86.01
2018-11-23T01:35:24.055Z,85.86
2018-11-23T01:37:52.312Z,86.02
2018-11-23T01:40:22.850Z,86.05
2018-11-23T01:42:51.472Z,86.21
2018-11-23T01:45:19.756Z,85.93
2018-11-23T01:47:48.031Z,85.87
2018-11-23T01:50:19.335Z,86.65
2018-11-23T01:52:48.539Z,86.80
2018-11-23T01:55:17.723Z,86.41
2018-11-23T01:57:46.343Z,86.63
2018-11-23T02:00:18.298Z,86.66
2018-11-23T02:02:47.257Z,86.77
2018-11-23T02:05:15.601Z,86.80
2018-11-23T02:07:50.360Z,87.10
2018-11-23T02:10:19.060Z,86.84
2018-11-23T02:12:47.369Z,86.88
2018-11-23T02:15:17.845Z,86.55
2018-11-23T02:17:46.296Z,86.28
2018-11-23T02:20:15.966Z,86.73
2018-11-23T02:22:44.232Z,86.36
2018-11-23T02:25:12.513Z,86.31
2018-11-23T02:27:40.833Z,86.32
2018-11-23T02:30:13.949Z,86.27
2018-11-23T02:32:42.572Z,86.46
2018-11-23T02:35:10.853Z,86.46
2018-11-23T02:37:39.152Z,86.36
2018-11-23T02:40:08.393Z,86.20
2018-11-23T02:42:37.104Z,86.25
2018-11-23T02:45:06.966Z,86.21
2018-11-23T02:47:35.252Z,85.84
2018-11-23T02:50:03.536Z,86.15
2018-11-23T02:52:31.815Z,86.20
2018-11-23T02:55:00.135Z,85.86
2018-11-23T02:57:28.396Z,85.68
2018-11-23T02:59:56.653Z,86.13
2018-11-23T03:02:24.957Z,85.96
2018-11-23T03:04:53.205Z,85.93
2018-11-23T03:07:21.533Z,85.88
2018-11-23T03:09:49.835Z,86.09
2018-11-23T03:12:18.068Z,85.59
2018-11-23T03:14:46.368Z,85.55
2018-11-23T03:17:14.706Z,85.59
2018-11-23T03:19:43.025Z,85.58
2018-11-23T03:22:11.341Z,85.50
2018-11-23T03:24:46.944Z,85.32
2018-11-23T03:27:16.131Z,85.73
2018-11-23T03:29:44.412Z,85.45
2018-11-23T03:32:12.681Z,85.18
2018-11-23T03:34:40.947Z,85.45
2018-11-23T03:37:09.185Z,85.79
2018-11-23T03:39:37.503Z,85.85
2018-11-23T03:42:05.941Z,85.37
2018-11-23T03:44:34.212Z,85.62
2018-11-23T03:47:02.516Z,85.64
2018-11-23T03:49:30.753Z,85.76
2018-11-23T03:51:59.048Z,85.76
2018-11-23T03:54:27.323Z,85.69
2018-11-23T03:56:55.708Z,85.62
2018-11-23T03:59:23.973Z,85.51
2018-11-23T04:01:52.260Z,85.32
2018-11-23T04:04:20.528Z,85.67
2018-11-23T04:06:48.784Z,85.48
2018-11-23T04:11:57.401Z,86.01
2018-11-23T04:14:25.732Z,85.77
2018-11-23T04:16:53.994Z,85.38
2018-11-23T04:19:22.265Z,85.73
2018-11-23T04:21:50.540Z,85.58
2018-11-23T04:24:18.824Z,85.79
2018-11-23T04:26:47.327Z,85.84
2018-11-23T04:29:15.599Z,86.49
2018-11-23T04:31:43.864Z,86.11
2018-11-23T04:34:12.173Z,86.02
2018-11-23T04:36:40.481Z,85.92
2018-11-23T04:39:09.221Z,86.29
2018-11-23T04:41:37.504Z,86.38
2018-11-23T04:44:06.029Z,86.67
2018-11-23T04:46:34.316Z,86.64
2018-11-23T04:49:02.592Z,86.65
2018-11-23T04:51:30.868Z,86.62
2018-11-23T04:53:59.153Z,86.63
2018-11-23T04:56:27.483Z,86.68
2018-11-23T04:58:55.804Z,86.42
2018-11-23T05:01:24.067Z,86.30
2018-11-23T05:03:52.373Z,86.59
2018-11-23T05:06:20.647Z,86.75
2018-11-23T05:08:48.920Z,86.90
2018-11-23T05:11:17.224Z,86.62
2018-11-23T05:13:45.509Z,86.80
2018-11-23T05:16:13.762Z,86.58
2018-11-23T05:18:42.089Z,86.33
2018-11-23T05:21:10.420Z,86.08
2018-11-23T05:23:38.691Z,86.43
2018-11-23T05:26:07.076Z,86.35
2018-11-23T05:28:35.424Z,86.34
2018-11-23T05:31:03.680Z,86.59
2018-11-23T05:33:32.040Z,86.18
2018-11-23T05:36:00.309Z,86.27
2018-11-23T05:38:28.612Z,86.42
2018-11-23T05:40:56.908Z,86.42
2018-11-23T05:43:25.175Z,86.61
2018-11-23T05:45:53.416Z,86.59
2018-11-23T05:48:26.824Z,86.61
2018-11-23T05:50:50.005Z,87.00
2018-11-23T05:53:18.308Z,86.85
2018-11-23T05:55:46.576Z,86.95
2018-11-23T05:58:14.877Z,86.54
2018-11-23T06:00:43.127Z,87.14
2018-11-23T06:03:11.464Z,87.08
2018-11-23T06:05:39.751Z,87.14
2018-11-23T06:08:07.987Z,87.28
2018-11-23T06:10:36.222Z,87.26
2018-11-23T06:13:04.582Z,87.26
2018-11-23T06:15:32.911Z,87.24
2018-11-23T06:18:01.204Z,87.50
2018-11-23T06:20:29.463Z,87.45
2018-11-23T06:22:57.747Z,87.60
2018-11-23T06:25:28.281Z,87.48
2018-11-23T06:27:56.540Z,87.82
2018-11-23T06:30:24.839Z,87.20
2018-11-23T06:33:04.623Z,87.15
2018-11-23T06:35:32.920Z,87.59
2018-11-23T06:38:01.241Z,87.22
2018-11-23T06:40:29.529Z,87.11
2018-11-23T06:42:57.797Z,87.01
2018-11-23T06:45:26.141Z,87.11
2018-11-23T06:47:54.432Z,87.39
2018-11-23T06:50:22.704Z,87.42
2018-11-23T06:52:50.983Z,87.34
2018-11-23T06:55:19.276Z,87.22
2018-11-23T06:57:47.541Z,87.17
2018-11-23T07:00:16.631Z,87.24
2018-11-23T07:02:45.437Z,87.67
2018-11-23T07:05:14.096Z,87.42
2018-11-23T07:07:42.469Z,87.47
2018-11-23T07:10:11.280Z,87.54
2018-11-23T07:12:40.146Z,87.61
2018-11-23T07:15:09.963Z,87.51
2018-11-23T07:17:38.556Z,87.60
2018-11-23T07:20:08.649Z,87.75
2018-11-23T07:22:37.041Z,87.78
2018-11-23T07:25:06.020Z,87.92
2018-11-23T07:27:34.293Z,87.71
2018-11-23T07:30:02.662Z,87.49
2018-11-23T07:32:30.959Z,88.02
2018-11-23T07:34:59.205Z,87.70
2018-11-23T07:37:27.478Z,87.68
2018-11-23T07:40:07.124Z,87.87
2018-11-23T07:42:35.416Z,87.58
2018-11-23T07:45:03.672Z,87.71
2018-11-23T07:47:31.948Z,87.56
2018-11-23T07:50:00.228Z,87.63
2018-11-23T07:52:28.501Z,87.44
2018-11-23T07:54:56.788Z,87.50
2018-11-23T07:57:25.056Z,87.98
2018-11-23T07:59:53.416Z,87.45
2018-11-23T08:02:21.685Z,87.86
2018-11-23T08:04:49.940Z,87.61
2018-11-23T08:07:18.228Z,87.61
2018-11-23T08:09:46.501Z,87.54
2018-11-23T08:12:14.764Z,87.50
2018-11-23T08:14:43.054Z,87.74
2018-11-23T08:17:11.292Z,87.45
2018-11-23T08:19:47.011Z,87.26
2018-11-23T08:22:07.834Z,87.76
2018-11-23T08:24:36.101Z,87.31
2018-11-23T08:27:04.428Z,87.47
2018-11-23T08:29:32.700Z,87.65
2018-11-23T08:32:01.001Z,87.48
2018-11-23T08:34:29.316Z,87.66
2018-11-23T08:36:57.647Z,88.13
2018-11-23T08:39:25.947Z,87.83
2018-11-23T08:41:54.183Z,87.64
2018-11-23T08:44:22.500Z,87.94
2018-11-23T08:46:50.756Z,88.01
2018-11-23T08:49:19.079Z,87.90
2018-11-23T08:51:47.359Z,88.01
2018-11-23T08:54:15.652Z,87.92
2018-11-23T08:56:43.911Z,88.38
2018-11-23T08:59:12.237Z,88.37
2018-11-23T09:01:40.515Z,88.69
2018-11-23T09:04:08.792Z,88.74
2018-11-23T09:06:37.320Z,88.45
2018-11-23T09:09:08.556Z,88.95
2018-11-23T09:11:36.872Z,88.65
2018-11-23T09:14:06.104Z,88.45
2018-11-23T09:16:34.388Z,88.86
2018-11-23T09:19:02.715Z,88.92
2018-11-23T09:21:30.968Z,89.11
2018-11-23T09:23:59.225Z,88.50
2018-11-23T09:26:27.531Z,88.77
2018-11-23T09:28:55.819Z,88.53
2018-11-23T09:31:24.107Z,88.68
2018-11-23T09:33:52.413Z,89.11
2018-11-23T09:36:20.706Z,88.69
2018-11-23T09:38:48.991Z,88.44
2018-11-23T09:41:17.267Z,88.66
2018-11-23T09:43:45.537Z,88.77
2018-11-23T09:46:13.825Z,88.76
2018-11-23T09:48:42.195Z,88.85
2018-11-23T09:51:10.621Z,88.71
2018-11-23T09:53:38.877Z,88.47
2018-11-23T09:56:07.175Z,88.84
2018-11-23T09:58:35.455Z,88.33
2018-11-23T10:01:03.849Z,88.68
2018-11-23T10:03:32.136Z,88.69
2018-11-23T10:06:01.588Z,88.61
2018-11-23T10:08:28.801Z,88.46
2018-11-23T10:10:57.060Z,88.06
2018-11-23T10:13:25.351Z,88.07
2018-11-23T10:15:53.608Z,87.39
2018-11-23T10:18:21.927Z,87.78
2018-11-23T10:20:50.180Z,87.60
2018-11-23T10:23:18.428Z,87.72
2018-11-23T10:25:46.676Z,87.40
2018-11-23T10:28:14.947Z,86.83
2018-11-23T10:30:43.220Z,87.60
2018-11-23T10:33:11.496Z,87.38
2018-11-23T10:35:39.772Z,86.31
2018-11-23T10:38:08.206Z,86.88
2018-11-23T10:40:37.976Z,86.97
2018-11-23T10:43:06.837Z,87.41
2018-11-23T10:45:35.452Z,87.09
2018-11-23T10:48:04.967Z,87.37
2018-11-23T10:50:34.968Z,86.97
2018-11-23T10:53:03.256Z,86.51
2018-11-23T10:55:32.972Z,86.58
2018-11-23T10:58:01.249Z,86.24
2018-11-23T11:00:34.919Z,86.57
2018-11-23T11:03:08.380Z,86.42
2018-11-23T11:05:42.120Z,86.28
2018-11-23T11:08:10.487Z,86.57
2018-11-23T11:10:38.772Z,86.22
2018-11-23T11:13:07.079Z,86.26
2018-11-23T11:15:35.327Z,86.37
2018-11-23T11:18:03.601Z,85.79
2018-11-23T11:20:31.864Z,85.51
2018-11-23T11:23:00.144Z,85.99
2018-11-23T11:25:28.435Z,85.84
2018-11-23T11:27:56.743Z,85.18
2018-11-23T11:30:25.036Z,85.80
2018-11-23T11:32:53.344Z,84.93
2018-11-23T11:35:21.632Z,84.58
2018-11-23T11:37:49.883Z,84.80
2018-11-23T11:40:19.335Z,84.70
2018-11-23T11:42:47.593Z,84.31
2018-11-23T11:45:19.280Z,84.33
2018-11-23T11:47:48.044Z,84.34
2018-11-23T11:50:16.428Z,84.14
2018-11-23T11:52:47.139Z,84.28
2018-11-23T11:55:16.775Z,84.12
2018-11-23T11:57:45.679Z,83.21
2018-11-23T12:00:17.606Z,82.92
2018-11-23T12:02:46.114Z,83.18
2018-11-23T12:05:14.688Z,82.94
2018-11-23T12:07:42.973Z,83.08
2018-11-23T12:10:13.912Z,82.69
2018-11-23T12:12:42.249Z,82.75
2018-11-23T12:15:11.599Z,82.56
2018-11-23T12:17:40.184Z,82.59
2018-11-23T12:20:11.259Z,81.98
2018-11-23T12:22:39.530Z,81.55
2018-11-23T12:25:07.832Z,81.93
2018-11-23T12:27:36.155Z,81.39
2018-11-23T12:30:05.837Z,81.31
2018-11-23T12:32:34.108Z,81.29
2018-11-23T12:35:02.376Z,81.03
2018-11-23T12:37:30.729Z,80.41
2018-11-23T12:39:59.000Z,80.44
2018-11-23T12:42:27.275Z,81.18
2018-11-23T12:44:55.547Z,80.52
2018-11-23T12:47:23.804Z,80.49
2018-11-23T12:49:52.039Z,80.33
2018-11-23T12:52:20.337Z,79.50
2018-11-23T12:54:48.625Z,79.52
2018-11-23T12:57:16.931Z,79.58
2018-11-23T12:59:45.207Z,79.33
2018-11-23T13:02:13.472Z,78.91
2018-11-23T13:04:41.741Z,79.62
2018-11-23T13:07:10.014Z,79.26
2018-11-23T13:09:38.326Z,78.52
2018-11-23T13:12:06.572Z,78.55
2018-11-23T13:14:34.888Z,78.36
2018-11-23T13:17:03.163Z,78.55
2018-11-23T13:19:31.688Z,79.13
2018-11-23T13:22:00.021Z,78.14
2018-11-23T13:24:28.343Z,78.33
2018-11-23T13:26:56.603Z,78.21
2018-11-23T13:29:24.887Z,78.36
2018-11-23T13:31:53.221Z,78.19
2018-11-23T13:34:21.517Z,78.07
2018-11-23T13:36:49.814Z,78.19
2018-11-23T13:39:18.147Z,77.94
2018-11-23T13:41:46.421Z,77.70
2018-11-23T13:44:14.663Z,78.16
2018-11-23T13:46:42.960Z,77.75
2018-11-23T13:49:11.209Z,78.18
2018-11-23T13:51:39.485Z,77.97
2018-11-23T13:54:07.720Z,77.95
2018-11-23T13:56:35.980Z,78.10
2018-11-23T13:59:04.576Z,78.43
2018-11-23T14:01:32.832Z,78.01
2018-11-23T14:04:01.080Z,78.11
2018-11-23T14:06:29.351Z,78.19
2018-11-23T14:08:57.617Z,77.64
2018-11-23T14:11:25.885Z,77.98
2018-11-23T14:13:54.152Z,77.93
2018-11-23T14:16:22.479Z,77.75
2018-11-23T14:18:50.740Z,78.12
2018-11-23T14:21:19.068Z,78.00
2018-11-23T14:23:47.321Z,78.89
2018-11-23T14:26:15.600Z,78.36
2018-11-23T14:28:43.859Z,78.00
2018-11-23T14:31:12.324Z,78.56
2018-11-23T14:33:40.600Z,78.28
2018-11-23T14:36:08.884Z,78.23
2018-11-23T14:38:37.192Z,78.28
2018-11-23T14:41:12.348Z,78.14
2018-11-23T14:43:40.615Z,78.67
2018-11-23T14:46:08.852Z,78.53
2018-11-23T14:48:37.147Z,78.57
2018-11-23T14:51:05.453Z,77.92
2018-11-23T14:53:33.739Z,78.23
2018-11-23T14:56:02.080Z,78.33
2018-11-23T14:58:30.369Z,77.76
2018-11-23T15:00:58.683Z,78.38
2018-11-23T15:03:26.966Z,78.82
2018-11-23T15:05:55.227Z,78.91
2018-11-23T15:08:23.509Z,78.64
2018-11-23T15:10:51.781Z,79.05
2018-11-23T15:13:20.202Z,78.97
2018-11-23T15:15:48.484Z,79.11
2018-11-23T15:18:16.788Z,79.19
2018-11-23T15:20:46.384Z,78.79
2018-11-23T15:24:28.936Z,79.63
2018-11-23T15:26:57.205Z,79.98
2018-11-23T15:29:25.508Z,80.11
2018-11-23T15:31:53.799Z,80.03
2018-11-23T15:34:22.104Z,79.68
2018-11-23T15:36:50.392Z,80.08
2018-11-23T15:39:18.679Z,79.91
2018-11-23T15:41:46.979Z,79.92
2018-11-23T15:44:15.262Z,80.47
2018-11-23T15:46:43.507Z,80.07
2018-11-23T15:49:11.783Z,80.21
2018-11-23T15:51:40.051Z,81.01
2018-11-23T15:54:08.367Z,81.09
2018-11-23T15:56:36.615Z,81.27
2018-11-23T15:59:05.048Z,80.75
2018-11-23T16:01:33.368Z,80.76
2018-11-23T16:04:01.643Z,81.09
2018-11-23T16:06:30.200Z,81.20
2018-11-23T16:08:58.502Z,81.75
2018-11-23T16:11:26.792Z,81.50
2018-11-23T16:13:55.024Z,81.71
2018-11-23T16:16:23.294Z,81.66
2018-11-23T16:18:52.024Z,82.12
2018-11-23T16:21:20.281Z,82.01
2018-11-23T16:23:48.600Z,82.61
2018-11-23T16:26:16.876Z,82.46
2018-11-23T16:28:45.158Z,82.89
2018-11-23T16:31:13.460Z,82.76
2018-11-23T16:33:41.775Z,82.66
2018-11-23T16:36:10.344Z,83.05
2018-11-23T16:38:38.614Z,83.06
2018-11-23T16:41:06.870Z,83.03
2018-11-23T16:43:35.183Z,83.34
2018-11-23T16:46:03.464Z,82.71
2018-11-23T16:48:31.774Z,82.96
2018-11-23T16:51:00.046Z,83.42
2018-11-23T16:53:28.320Z,83.19
2018-11-23T16:55:56.575Z,83.70
2018-11-23T16:58:24.832Z,83.76
2018-11-23T17:00:53.098Z,84.05
2018-11-23T17:03:22.319Z,84.08
2018-11-23T17:05:51.977Z,84.13
2018-11-23T17:08:20.643Z,84.30
2018-11-23T17:10:48.908Z,84.43
2018-11-23T17:13:17.271Z,84.64
2018-11-23T17:15:45.514Z,84.44
2018-11-23T17:18:13.799Z,84.45
2018-11-23T17:20:42.157Z,84.54
2018-11-23T17:23:11.337Z,85.03
2018-11-23T17:25:39.621Z,85.16
2018-11-23T17:28:09.099Z,84.51
2018-11-23T17:30:37.808Z,85.08
2018-11-23T17:33:06.137Z,85.17
2018-11-23T17:35:34.412Z,85.44
2018-11-23T17:38:02.684Z,85.57
2018-11-23T17:40:32.543Z,85.55
2018-11-23T17:43:00.823Z,85.44
2018-11-23T17:45:30.954Z,85.43
2018-11-23T17:47:59.421Z,85.38
2018-11-23T17:50:28.844Z,85.67
2018-11-23T17:52:57.303Z,85.29
2018-11-23T17:55:25.601Z,85.55
2018-11-23T17:57:54.860Z,86.08
2018-11-23T18:00:24.480Z,86.22
2018-11-23T18:02:53.387Z,85.95
2018-11-23T18:05:22.540Z,86.20
2018-11-23T18:07:51.067Z,85.97
2018-11-23T18:10:21.745Z,86.30
2018-11-23T18:12:50.695Z,86.21
2018-11-23T18:15:21.324Z,86.21
2018-11-23T18:17:50.408Z,86.21
2018-11-23T18:20:19.805Z,86.34
2018-11-23T18:22:48.912Z,86.38
2018-11-23T18:25:19.691Z,86.41
2018-11-23T18:27:48.456Z,86.52
2018-11-23T18:30:16.742Z,86.60
2018-11-23T18:32:44.993Z,86.74
2018-11-23T18:35:13.970Z,86.64
2018-11-23T18:37:42.314Z,86.48
2018-11-23T18:40:11.715Z,86.25
2018-11-23T18:42:39.971Z,86.50
2018-11-23T18:45:11.348Z,86.62
2018-11-23T18:47:39.832Z,87.19
2018-11-23T18:50:09.726Z,86.76
2018-11-23T18:52:37.991Z,87.12
2018-11-23T18:55:06.780Z,87.15
2018-11-23T18:57:35.029Z,87.01
2018-11-23T19:00:03.347Z,87.48
2018-11-23T19:02:31.607Z,87.58
2018-11-23T19:04:59.904Z,87.29
2018-11-23T19:07:28.186Z,87.10
2018-11-23T19:09:56.492Z,87.63
2018-11-23T19:12:24.750Z,87.59
2018-11-23T19:14:53.026Z,87.29
2018-11-23T19:17:21.316Z,87.69
2018-11-23T19:19:49.593Z,87.35
2018-11-23T19:22:17.879Z,87.19
2018-11-23T19:24:46.137Z,87.63
2018-11-23T19:27:14.413Z,87.90
2018-11-23T19:29:42.704Z,87.66
2018-11-23T19:32:10.922Z,87.90
2018-11-23T19:34:39.184Z,87.43
2018-11-23T19:37:07.460Z,87.45
2018-11-23T19:39:35.736Z,88.00
2018-11-23T19:42:04.012Z,87.69
2018-11-23T19:44:32.297Z,87.91
2018-11-23T19:47:00.580Z,87.29
2018-11-23T19:49:28.837Z,87.76
2018-11-23T19:51:57.127Z,87.58
2018-11-23T19:54:25.385Z,87.53
2018-11-23T19:56:53.664Z,88.30
2018-11-23T19:59:21.912Z,87.46
2018-11-23T20:01:50.172Z,87.86
2018-11-23T20:04:18.436Z,87.95
2018-11-23T20:06:46.719Z,87.69
2018-11-23T20:09:14.997Z,87.92
2018-11-23T20:11:43.264Z,87.17
2018-11-23T20:14:11.552Z,87.50
2018-11-23T20:16:39.845Z,87.32
2018-11-23T20:19:08.081Z,87.48
2018-11-23T20:21:36.364Z,87.94
2018-11-23T20:24:04.898Z,87.28
2018-11-23T20:26:33.148Z,88.18
2018-11-23T20:29:01.436Z,88.65
2018-11-23T20:31:29.691Z,88.24
2018-11-23T20:33:57.995Z,88.00
2018-11-23T20:36:26.257Z,88.47
2018-11-23T20:38:54.525Z,88.22
2018-11-23T20:41:22.792Z,88.64
2018-11-23T20:43:51.471Z,88.48
2018-11-23T20:46:19.922Z,88.62
2018-11-23T20:48:48.041Z,88.33
2018-11-23T20:51:16.332Z,88.45
2018-11-23T20:53:44.623Z,88.82
2018-11-23T20:56:12.941Z,88.81
2018-11-23T20:58:41.239Z,88.38
2018-11-23T21:01:09.602Z,88.25
2018-11-23T21:03:37.904Z,88.29
2018-11-23T21:06:06.456Z,88.01
2018-11-23T21:08:34.744Z,88.87
2018-11-23T21:11:03.068Z,88.70
2018-11-23T21:13:31.371Z,88.65
2018-11-23T21:15:59.635Z,89.10
2018-11-23T21:18:27.901Z,88.78
2018-11-23T21:20:56.224Z,88.71
2018-11-23T21:23:24.533Z,88.49
2018-11-23T21:25:52.844Z,88.58
2018-11-23T21:28:21.170Z,89.23
2018-11-23T21:30:49.434Z,89.22
2018-11-23T21:33:18.187Z,89.18
2018-11-23T21:35:46.484Z,88.78
2018-11-23T21:38:14.915Z,88.90
2018-11-23T21:40:44.483Z,88.55
2018-11-23T21:43:11.479Z,88.81
2018-11-23T21:45:39.758Z,88.63
2018-11-23T21:48:08.024Z,88.51
2018-11-23T21:50:36.301Z,88.43
2018-11-23T21:53:04.603Z,88.61
2018-11-23T21:55:32.893Z,89.06
2018-11-23T21:58:01.172Z,89.22
2018-11-23T22:00:29.477Z,89.68
2018-11-23T22:02:57.768Z,88.72
2018-11-23T22:05:26.048Z,88.71
2018-11-23T22:07:54.355Z,88.96
2018-11-23T22:10:22.655Z,88.83
2018-11-23T22:12:51.032Z,88.68
2018-11-23T22:15:22.333Z,89.13
2018-11-23T22:17:51.514Z,88.93
2018-11-23T22:20:20.775Z,89.02
2018-11-23T22:22:49.041Z,88.81
2018-11-23T22:25:18.420Z,88.54
2018-11-23T22:27:46.723Z,88.83
2018-11-23T22:30:17.975Z,88.96
2018-11-23T22:32:46.280Z,89.24
2018-11-23T22:35:14.620Z,88.93
2018-11-23T22:37:42.888Z,88.77
2018-11-23T22:40:13.269Z,89.19
2018-11-23T22:42:42.544Z,89.34
2018-11-23T22:45:12.057Z,89.29
2018-11-23T22:47:40.340Z,89.26
2018-11-23T22:50:11.900Z,89.10
2018-11-23T22:52:40.191Z,89.11
2018-11-23T22:55:10.592Z,89.45
2018-11-23T22:57:39.061Z,89.53
2018-11-23T23:00:11.328Z,89.67
2018-11-23T23:02:39.636Z,89.72
2018-11-23T23:05:08.191Z,89.93
2018-11-23T23:07:36.451Z,89.68
2018-11-23T23:10:05.056Z,89.90
2018-11-23T23:12:33.351Z,89.51
2018-11-23T23:15:01.652Z,89.86
2018-11-23T23:17:32.842Z,89.91
2018-11-23T23:20:01.077Z,89.67
2018-11-23T23:22:29.350Z,89.96
2018-11-23T23:24:57.635Z,90.20
2018-11-23T23:27:25.895Z,89.93
2018-11-23T23:29:54.196Z,89.59
2018-11-23T23:32:22.444Z,90.06
2018-11-23T23:34:50.728Z,90.13
2018-11-23T23:37:19.007Z,89.83
2018-11-23T23:39:47.267Z,89.96
2018-11-23T23:42:15.527Z,90.18
2018-11-23T23:44:43.789Z,90.03
2018-11-23T23:47:12.091Z,90.07
2018-11-23T23:49:40.352Z,90.20
2018-11-23T23:52:08.633Z,90.31
2018-11-23T23:54:36.884Z,90.16
2018-11-23T23:57:05.189Z,90.42
2018-11-23T23:59:33.459Z,90.69
